Espinosa, Brazil
Current Conditions -  °F | °C
As of 12:00 AM on Wednesday 22 Oct 2014 (Local Time) from SBQV Reporting Station
Few Clouds Few Clouds  
Wind Chill: 68°   Ceiling: Unl
Heat Index: 68°   Visibility: 6mi
Dew Point: 64°   Wind: 10mph
Humidity: 88%   Direction: 100°E
Pressure: 30.12"   Gusts: NA
Location:  14.93°S, 42.83°W
Report Text: SBQV 220200Z 10009KT 9999 FEW010 20/18 Q1020
Loading
Personal Weather Stations






























Interactive Weather Map
Tropical Storm Tracking
New forecast layout! Learn more

10-Day Weather Forecast

Advertisements
Track Severe Weather on mobile